Terminal Aerodrome Forecast
Issued by NWS

Home | Current Version | Previous Version | Graphics & Text | Print | Product List | Glossary On
Versions: 1 2 3 4 5 6 7 8 9 10 11 12 13 14 15
481
FTUS43 KGRB 211129
TAFRHI
TAF
KRHI 211129Z 2112/2212 28007KT P6SM FEW070 BKN200
     FM211300 30011KT P6SM SCT070 BKN200
     FM211600 30009KT P6SM -SHRA BKN070 BKN120
     FM211900 33006KT P6SM SCT100
     FM220000 VRB03KT P6SM SKC=

USA.gov is the U.S. government's official web portal to all federal, state and local government web resources and services.